Time;durP1;ratioP1;P1;durP2;ratioP2;P2;SDS_P1;SDS_P2;PMS_P1;PMS_P2;Temp;Humidity;BMP_temperature;BMP_pressure;BME280_temperature;BME280_humidity;BME280_pressure;Samples;Min_cycle;Max_cycle;Signal;HPM_P1;HPM_P2
2023/06/23 00:00:22;;;;;;;6.70;5.60;;;;;;;17.02;72.21;100493.91;103832;278;39395;-73
2023/06/23 00:03:16;;;;;;;6.80;5.70;;;;;;;16.95;72.17;100500.87;103814;279;38432;-72
2023/06/23 00:05:50;;;;;;;8.90;5.80;;;;;;;16.91;72.31;100504.14;103858;278;38292;-73
2023/06/23 00:08:26;;;;;;;8.80;5.50;;;;;;;16.85;72.30;100506.42;103822;278;38508;-74
2023/06/23 00:11:00;;;;;;;6.60;5.60;;;;;;;16.84;72.61;100501.58;103864;278;38826;-74
2023/06/23 00:13:34;;;;;;;6.50;5.20;;;;;;;16.83;72.51;100508.69;103662;278;39681;-73
2023/06/23 00:16:09;;;;;;;7.70;6.00;;;;;;;16.79;72.75;100514.40;103844;278;38474;-73
2023/06/23 00:18:43;;;;;;;7.40;5.70;;;;;;;16.77;72.99;100511.69;103848;278;38556;-73
2023/06/23 00:21:18;;;;;;;7.00;5.50;;;;;;;16.75;73.00;100508.82;103836;278;38254;-74
2023/06/23 00:23:54;;;;;;;8.60;6.00;;;;;;;16.75;73.28;100509.52;103806;279;39235;-73
2023/06/23 00:26:28;;;;;;;6.90;5.30;;;;;;;16.76;73.18;100507.33;103853;278;38237;-74
2023/06/23 00:29:05;;;;;;;9.40;5.90;;;;;;;16.77;73.19;100507.45;103841;278;38635;-73
2023/06/23 00:31:39;;;;;;;7.00;5.60;;;;;;;16.79;73.18;100510.00;103870;279;39646;-75
2023/06/23 00:34:13;;;;;;;7.80;5.30;;;;;;;16.77;73.16;100506.42;103826;278;39025;-73
2023/06/23 00:36:47;;;;;;;6.20;5.50;;;;;;;16.77;73.20;100505.16;103845;279;38391;-75
2023/06/23 00:39:21;;;;;;;7.90;5.60;;;;;;;16.78;73.38;100504.59;103824;278;38521;-74
2023/06/23 00:41:56;;;;;;;6.40;5.40;;;;;;;16.78;73.51;100501.74;103862;279;38402;-73
2023/06/23 00:44:30;;;;;;;8.80;5.30;;;;;;;16.82;73.48;100501.50;103710;278;38868;-73
2023/06/23 00:47:05;;;;;;;5.90;5.10;;;;;;;16.84;73.51;100497.52;103869;278;38587;-73
2023/06/23 00:49:40;;;;;;;7.40;5.90;;;;;;;16.88;73.52;100495.86;103806;278;38908;-74
2023/06/23 00:52:16;;;;;;;7.80;6.10;;;;;;;16.90;73.33;100495.57;103893;278;37317;-73
2023/06/23 00:54:51;;;;;;;8.10;6.10;;;;;;;16.95;73.14;100490.67;103807;279;38378;-74
2023/06/23 00:57:24;;;;;;;7.10;6.00;;;;;;;16.98;73.15;100486.23;103743;279;38242;-74
2023/06/23 00:59:58;;;;;;;6.10;5.40;;;;;;;17.01;72.95;100485.88;103735;279;38998;-74
2023/06/23 01:02:33;;;;;;;7.40;5.70;;;;;;;17.02;72.96;100483.14;103754;279;39718;-72
2023/06/23 01:05:09;;;;;;;7.30;5.70;;;;;;;17.03;73.00;100482.19;103735;279;39468;-74
2023/06/23 01:07:50;;;;;;;8.10;6.20;;;;;;;17.06;72.86;100479.79;103740;279;38557;-72
2023/06/23 01:10:31;;;;;;;6.20;5.60;;;;;;;17.06;72.86;100473.92;103754;279;38297;-74
2023/06/23 01:13:11;;;;;;;7.20;6.00;;;;;;;17.05;72.83;100468.69;103777;279;38259;-74
2023/06/23 01:15:48;;;;;;;7.50;5.20;;;;;;;17.03;72.87;100465.63;103746;279;38284;-72
2023/06/23 01:18:30;;;;;;;6.00;5.10;;;;;;;17.01;72.94;100461.36;103574;279;41301;-73
2023/06/23 01:21:07;;;;;;;6.10;5.50;;;;;;;16.99;72.95;100456.90;103748;279;38544;-74
2023/06/23 01:24:03;;;;;;;6.70;5.80;;;;;;;17.00;73.04;100458.30;103715;279;38279;-74
2023/06/23 01:26:58;;;;;;;6.90;6.20;;;;;;;16.98;73.09;100454.12;103737;279;39457;-73
2023/06/23 01:29:33;;;;;;;7.00;5.60;;;;;;;17.02;73.03;100452.82;103734;279;38324;-73
2023/06/23 01:32:11;;;;;;;7.00;6.30;;;;;;;17.07;72.69;100457.45;103727;279;38587;-74
2023/06/23 01:34:48;;;;;;;8.80;6.20;;;;;;;17.13;72.31;100445.62;103704;279;39269;-74
2023/06/23 01:37:27;;;;;;;7.20;6.50;;;;;;;17.19;72.11;100448.25;103709;279;38492;-73
2023/06/23 01:40:06;;;;;;;8.50;5.90;;;;;;;17.24;71.77;100453.02;103664;279;38283;-73
2023/06/23 01:42:43;;;;;;;7.10;5.90;;;;;;;17.28;71.68;100448.18;103718;279;38224;-75
2023/06/23 01:45:17;;;;;;;7.10;6.00;;;;;;;17.29;71.38;100449.34;103697;279;38837;-74
2023/06/23 01:47:51;;;;;;;6.60;5.80;;;;;;;17.33;71.12;100454.94;103675;279;41486;-74
2023/06/23 01:50:25;;;;;;;6.90;6.20;;;;;;;17.38;70.76;100453.02;103740;279;39392;-73
2023/06/23 01:53:00;;;;;;;6.90;5.90;;;;;;;17.44;70.57;100463.72;103687;279;38275;-72
2023/06/23 01:55:34;;;;;;;8.20;6.10;;;;;;;17.49;70.35;100464.80;103697;279;38886;-73
2023/06/23 01:58:08;;;;;;;7.00;6.00;;;;;;;17.53;70.14;100461.73;103743;279;39225;-75
2023/06/23 02:00:44;;;;;;;7.50;6.00;;;;;;;17.55;70.00;100457.38;103738;279;39366;-75
2023/06/23 02:03:18;;;;;;;6.00;5.40;;;;;;;17.57;69.86;100454.40;103775;279;38383;-73
2023/06/23 02:05:54;;;;;;;7.70;5.80;;;;;;;17.62;69.61;100457.83;103754;279;38238;-73
2023/06/23 02:08:29;;;;;;;6.00;5.40;;;;;;;17.66;69.62;100452.59;103754;279;38500;-74
2023/06/23 02:11:02;;;;;;;5.90;5.30;;;;;;;17.70;69.37;100450.94;103758;279;38908;-74
2023/06/23 02:13:36;;;;;;;5.80;5.30;;;;;;;17.73;69.24;100455.84;103737;279;40011;-72
2023/06/23 02:16:11;;;;;;;5.80;5.20;;;;;;;17.75;69.26;100455.05;103767;279;39877;-73
2023/06/23 02:18:45;;;;;;;5.80;5.30;;;;;;;17.76;69.14;100457.43;103759;279;39438;-75
2023/06/23 02:21:19;;;;;;;6.20;5.50;;;;;;;17.77;68.92;100459.27;103780;279;39660;-73
2023/06/23 02:23:53;;;;;;;6.20;5.20;;;;;;;17.78;68.95;100460.27;103716;279;38266;-74
2023/06/23 02:26:27;;;;;;;7.00;5.30;;;;;;;17.81;68.93;100459.23;103753;279;39415;-75
2023/06/23 02:29:01;;;;;;;8.40;6.20;;;;;;;17.83;68.96;100455.00;103707;279;38704;-75
2023/06/23 02:31:35;;;;;;;6.80;5.60;;;;;;;17.85;68.83;100455.21;103764;279;39456;-74
2023/06/23 02:34:09;;;;;;;6.60;6.00;;;;;;;17.88;68.75;100449.92;103727;279;38606;-74
2023/06/23 02:36:47;;;;;;;11.60;5.70;;;;;;;17.90;68.61;100438.11;103728;279;38384;-75
2023/06/23 02:39:22;;;;;;;5.90;5.00;;;;;;;17.94;68.64;100441.23;103755;279;38789;-74
2023/06/23 02:41:57;;;;;;;7.70;5.20;;;;;;;17.97;68.47;100446.60;103751;279;38704;-73
2023/06/23 02:44:36;;;;;;;5.90;4.80;;;;;;;18.03;68.41;100449.42;103730;279;38414;-75
2023/06/23 02:47:12;;;;;;;6.10;5.00;;;;;;;18.10;68.27;100450.38;103692;279;172143;-73
2023/06/23 02:49:46;;;;;;;8.40;5.60;;;;;;;18.18;68.23;100451.80;103754;279;38273;-73
2023/06/23 02:52:20;;;;;;;7.00;5.50;;;;;;;18.24;68.10;100453.68;103770;279;39966;-73
2023/06/23 02:54:54;;;;;;;6.00;5.40;;;;;;;18.27;67.90;100452.86;103795;279;38379;-73
2023/06/23 02:57:29;;;;;;;8.60;5.50;;;;;;;18.31;67.79;100452.06;103800;279;38413;-74
2023/06/23 03:00:06;;;;;;;5.40;4.60;;;;;;;18.36;67.34;100445.39;103755;279;39581;-72
2023/06/23 03:02:40;;;;;;;5.70;4.90;;;;;;;18.41;67.29;100441.30;103751;279;38253;-75
2023/06/23 03:05:14;;;;;;;6.60;4.80;;;;;;;18.49;66.98;100433.17;103725;279;38820;-75
2023/06/23 03:07:48;;;;;;;5.80;5.10;;;;;;;18.58;66.90;100429.88;103769;279;38377;-73
2023/06/23 03:10:22;;;;;;;7.20;5.30;;;;;;;18.68;66.49;100421.83;103634;276;174516;-73
2023/06/23 03:12:56;;;;;;;5.10;4.70;;;;;;;18.76;66.18;100416.45;103742;279;38325;-74
2023/06/23 03:15:31;;;;;;;6.40;5.00;;;;;;;18.85;65.98;100412.10;103716;279;38391;-72
2023/06/23 03:18:10;;;;;;;8.40;5.50;;;;;;;18.94;65.55;100409.73;103742;279;38775;-75
2023/06/23 03:20:50;;;;;;;5.50;4.90;;;;;;;19.02;65.45;100413.19;103476;279;174917;-75
2023/06/23 03:23:24;;;;;;;6.00;5.00;;;;;;;19.11;65.23;100407.02;103741;279;38490;-75
2023/06/23 03:25:59;;;;;;;5.50;4.80;;;;;;;19.20;64.91;100413.24;103739;279;39530;-75
2023/06/23 03:28:33;;;;;;;7.00;5.20;;;;;;;19.29;64.70;100414.52;103744;279;38308;-75
2023/06/23 03:31:12;;;;;;;6.80;5.00;;;;;;;19.38;64.66;100420.95;103738;279;39268;-73
2023/06/23 03:33:45;;;;;;;;;;;;;;;19.50;64.33;100426.27;103777;279;38373;-73
2023/06/23 03:36:22;;;;;;;6.20;5.00;;;;;;;19.61;64.18;100425.47;103723;279;38811;-74
2023/06/23 03:39:02;;;;;;;6.20;5.00;;;;;;;19.83;64.24;100425.98;103763;279;38880;-72
2023/06/23 03:41:36;;;;;;;5.50;4.90;;;;;;;20.12;63.93;100437.15;103766;279;38934;-73
2023/06/23 03:44:18;;;;;;;5.50;4.60;;;;;;;20.49;63.89;100456.51;103759;279;39602;-73
2023/06/23 03:46:55;;;;;;;6.30;4.90;;;;;;;20.91;62.94;100471.65;103834;279;38229;-74
2023/06/23 03:49:32;;;;;;;6.70;4.70;;;;;;;21.24;62.17;100475.87;103729;279;38243;-74
2023/06/23 03:52:10;;;;;;;5.80;4.50;;;;;;;21.54;61.20;100475.94;103782;279;38429;-75
2023/06/23 03:54:44;;;;;;;5.30;4.30;;;;;;;21.86;60.60;100470.79;103802;279;38509;-75
2023/06/23 03:57:21;;;;;;;5.20;4.50;;;;;;;22.12;59.68;100463.27;103739;279;38378;-75
2023/06/23 03:59:55;;;;;;;5.70;4.40;;;;;;;22.22;58.20;100447.52;103647;267;174450;-75
2023/06/23 04:02:30;;;;;;;5.80;4.70;;;;;;;22.22;57.62;100439.75;103755;279;38892;-74
2023/06/23 04:05:04;;;;;;;4.80;4.30;;;;;;;22.18;57.13;100440.90;103716;279;38721;-74
2023/06/23 04:07:39;;;;;;;5.90;4.20;;;;;;;22.10;56.52;100441.38;103751;279;38732;-74
2023/06/23 04:10:14;;;;;;;6.50;4.50;;;;;;;21.99;56.67;100438.84;103709;279;39651;-74
2023/06/23 04:12:48;;;;;;;5.20;4.60;;;;;;;21.88;56.59;100416.98;103720;279;40139;-74
2023/06/23 04:15:23;;;;;;;5.20;4.20;;;;;;;21.77;56.68;100398.73;103724;279;38289;-74
2023/06/23 04:17:59;;;;;;;5.50;4.00;;;;;;;21.67;56.28;100396.60;103723;279;38798;-73
2023/06/23 04:20:34;;;;;;;5.50;4.40;;;;;;;21.57;56.75;100395.30;103706;279;39433;-73
2023/06/23 04:23:08;;;;;;;5.70;4.50;;;;;;;21.55;57.26;100385.47;103743;279;39368;-73
2023/06/23 04:25:48;;;;;;;5.80;4.00;;;;;;;21.59;56.96;100374.82;103703;279;38253;-73
2023/06/23 04:28:24;;;;;;;5.40;4.60;;;;;;;21.59;56.56;100370.80;103746;268;39451;-74
2023/06/23 04:31:00;;;;;;;6.40;4.40;;;;;;;21.63;56.49;100371.52;103766;279;39440;-74
2023/06/23 04:33:35;;;;;;;4.50;4.10;;;;;;;21.69;56.05;100369.05;103766;279;39919;-75
2023/06/23 04:36:12;;;;;;;5.80;4.50;;;;;;;21.82;55.76;100364.73;103794;279;38155;-73
2023/06/23 04:38:49;;;;;;;5.60;4.00;;;;;;;21.99;55.30;100368.45;103769;279;39428;-74
2023/06/23 04:41:24;;;;;;;4.60;4.10;;;;;;;22.17;55.16;100376.88;103830;279;38331;-73
2023/06/23 04:43:59;;;;;;;5.10;3.80;;;;;;;22.41;54.85;100390.96;103690;279;39406;-74
2023/06/23 04:46:34;;;;;;;6.20;4.30;;;;;;;22.65;54.81;100387.77;103755;279;38792;-74
2023/06/23 04:49:10;;;;;;;5.10;3.70;;;;;;;22.90;54.04;100394.62;103720;279;38622;-75
2023/06/23 04:51:47;;;;;;;7.90;4.10;;;;;;;23.13;52.91;100404.83;103712;279;40062;-75
2023/06/23 04:54:26;;;;;;;5.70;4.30;;;;;;;23.34;52.14;100404.70;103752;279;39294;-75
2023/06/23 04:57:04;;;;;;;5.80;3.70;;;;;;;23.58;52.04;100410.96;103638;279;171810;-73
2023/06/23 04:59:40;;;;;;;7.90;3.90;;;;;;;23.80;51.51;100417.10;103745;279;38228;-74
2023/06/23 05:02:15;;;;;;;4.30;3.90;;;;;;;23.98;50.83;100414.52;103760;279;38613;-73
2023/06/23 05:04:50;;;;;;;6.40;4.30;;;;;;;24.14;50.37;100413.55;103706;279;38465;-73
2023/06/23 05:07:25;;;;;;;5.00;3.80;;;;;;;24.36;50.85;100397.52;103721;279;38262;-73
2023/06/23 05:10:00;;;;;;;6.10;3.50;;;;;;;24.65;49.61;100390.90;103585;279;171436;-73
2023/06/23 05:12:35;;;;;;;4.50;3.50;;;;;;;24.84;48.57;100385.08;103759;279;38498;-74
2023/06/23 05:15:11;;;;;;;7.60;4.30;;;;;;;24.96;48.75;100369.81;103755;279;38357;-74
2023/06/23 05:17:47;;;;;;;7.30;3.70;;;;;;;25.10;48.02;100355.29;103790;279;38655;-74
2023/06/23 05:20:24;;;;;;;4.70;3.30;;;;;;;25.09;47.43;100358.58;103746;279;39618;-74
2023/06/23 05:23:02;;;;;;;6.20;3.50;;;;;;;24.97;46.86;100366.70;103743;279;38412;-74
2023/06/23 05:25:37;;;;;;;4.10;3.10;;;;;;;24.86;46.94;100373.17;103786;279;38854;-74
2023/06/23 05:28:11;;;;;;;5.60;3.50;;;;;;;24.76;47.30;100387.71;103828;279;38881;-74
2023/06/23 05:30:48;;;;;;;4.00;3.60;;;;;;;24.69;47.15;100400.32;103750;279;38755;-74
2023/06/23 05:33:22;;;;;;;4.20;3.70;;;;;;;24.63;47.92;100404.42;103698;279;38585;-74
2023/06/23 05:35:57;;;;;;;6.10;3.70;;;;;;;24.68;48.22;100400.41;103690;280;38244;-74
2023/06/23 05:38:31;;;;;;;5.20;3.70;;;;;;;24.82;47.97;100396.38;103710;279;39436;-74
2023/06/23 05:41:05;;;;;;;5.40;3.70;;;;;;;25.05;47.50;100400.23;103744;279;38266;-74
2023/06/23 05:43:39;;;;;;;4.50;3.80;;;;;;;25.34;47.07;100396.58;103699;279;38394;-73
2023/06/23 05:46:16;;;;;;;7.00;4.50;;;;;;;25.69;46.59;100405.55;103772;279;38472;-74
2023/06/23 05:48:51;;;;;;;6.10;3.80;;;;;;;25.95;45.35;100402.47;103706;279;39040;-74
2023/06/23 05:51:29;;;;;;;6.90;4.20;;;;;;;26.06;44.81;100396.64;103722;279;39399;-74
2023/06/23 05:54:09;;;;;;;4.20;3.10;;;;;;;26.23;44.78;100399.54;103749;279;39309;-74
2023/06/23 05:56:45;;;;;;;6.10;3.70;;;;;;;26.31;43.84;100398.71;103779;279;38974;-74
2023/06/23 05:59:25;;;;;;;3.80;3.40;;;;;;;26.41;43.86;100401.65;103649;279;174445;-73
2023/06/23 06:02:01;;;;;;;4.80;3.40;;;;;;;26.44;43.27;100404.70;103733;279;39879;-74
2023/06/23 06:04:36;;;;;;;3.50;3.10;;;;;;;26.44;43.55;100391.32;103778;279;38265;-73
2023/06/23 06:07:11;;;;;;;5.50;3.60;;;;;;;26.51;42.93;100373.98;103733;279;38509;-75
2023/06/23 06:09:45;;;;;;;4.20;3.10;;;;;;;26.45;43.17;100365.24;103713;279;38519;-73
2023/06/23 06:12:19;;;;;;;5.30;3.20;;;;;;;26.44;43.60;100366.23;103775;279;38227;-74
2023/06/23 06:14:53;;;;;;;8.30;3.80;;;;;;;26.42;43.12;100364.30;103757;279;38355;-74
2023/06/23 06:17:27;;;;;;;4.00;3.60;;;;;;;26.29;42.58;100371.53;103736;279;38241;-74
2023/06/23 06:20:05;;;;;;;4.70;3.20;;;;;;;26.11;42.90;100368.62;103786;279;39430;-74
2023/06/23 06:22:40;;;;;;;4.90;3.00;;;;;;;25.95;43.09;100357.02;103800;279;38608;-74
2023/06/23 06:25:15;;;;;;;5.80;3.20;;;;;;;25.84;43.38;100336.18;103795;279;38265;-74
2023/06/23 06:27:51;;;;;;;4.20;3.20;;;;;;;25.73;43.50;100317.27;103778;279;38827;-74
2023/06/23 06:30:25;;;;;;;5.50;3.40;;;;;;;25.64;43.62;100313.05;103088;279;934924;-74
2023/06/23 06:33:00;;;;;;;4.40;3.20;;;;;;;25.52;43.67;100314.64;103749;279;38259;-75
2023/06/23 06:35:57;;;;;;;4.20;3.10;;;;;;;25.40;44.02;100319.91;103795;279;38278;-75
2023/06/23 06:38:35;;;;;;;8.80;3.50;;;;;;;25.27;44.14;100326.60;103723;279;39445;-75
2023/06/23 06:41:10;;;;;;;5.30;3.50;;;;;;;25.18;44.66;100318.89;103794;279;38318;-75
2023/06/23 06:43:44;;;;;;;7.60;3.30;;;;;;;25.11;44.60;100315.30;103651;279;171810;-73
2023/06/23 06:46:19;;;;;;;5.50;3.30;;;;;;;25.02;44.84;100322.63;103748;279;39117;-75
2023/06/23 06:48:53;;;;;;;6.90;3.30;;;;;;;24.96;45.21;100333.30;103712;279;38257;-75
2023/06/23 06:51:27;;;;;;;4.90;3.90;;;;;;;24.91;45.51;100342.19;103739;279;38456;-74
2023/06/23 06:54:03;;;;;;;6.20;3.40;;;;;;;24.83;45.88;100349.36;103724;279;39425;-75
2023/06/23 06:56:37;;;;;;;6.10;3.40;;;;;;;24.74;46.21;100355.08;103715;279;39141;-75
2023/06/23 06:59:12;;;;;;;4.40;3.50;;;;;;;24.64;46.54;100368.65;103723;279;38254;-75
2023/06/23 07:01:47;;;;;;;4.10;3.50;;;;;;;24.53;46.65;100374.93;103647;279;174329;-75
2023/06/23 07:04:26;;;;;;;4.90;3.40;;;;;;;24.44;47.06;100366.71;103803;279;39390;-75
2023/06/23 07:07:02;;;;;;;7.20;3.50;;;;;;;24.40;47.31;100352.30;103735;279;38237;-75
2023/06/23 07:09:37;;;;;;;4.80;3.80;;;;;;;24.40;47.58;100350.00;103769;279;38409;-74
2023/06/23 07:12:13;;;;;;;4.70;3.80;;;;;;;24.42;47.72;100345.64;103807;279;39477;-75
2023/06/23 07:14:47;;;;;;;5.00;3.80;;;;;;;24.40;47.64;100331.40;103746;279;38233;-74
2023/06/23 07:17:22;;;;;;;8.60;4.00;;;;;;;24.38;47.82;100314.67;103827;279;38521;-73
2023/06/23 07:19:56;;;;;;;6.20;4.10;;;;;;;24.36;47.76;100311.67;103755;279;38477;-74
2023/06/23 07:22:33;;;;;;;6.70;4.00;;;;;;;24.33;47.82;100307.52;103778;279;38534;-79
2023/06/23 07:25:13;;;;;;;6.40;4.30;;;;;;;24.33;48.09;100306.43;103790;279;38397;-79
2023/06/23 07:27:48;;;;;;;4.90;4.40;;;;;;;24.32;48.18;100294.54;103821;279;38522;-75
2023/06/23 07:30:24;;;;;;;6.00;4.20;;;;;;;24.34;48.58;100277.98;103713;279;38246;-73
2023/06/23 07:32:58;;;;;;;6.20;4.40;;;;;;;24.36;48.51;100282.60;103809;279;38232;-73
2023/06/23 07:35:32;;;;;;;5.40;4.00;;;;;;;24.38;48.75;100289.54;103767;279;38845;-73
2023/06/23 07:38:06;;;;;;;5.30;4.50;;;;;;;24.42;48.97;100288.99;103739;279;38998;-74
2023/06/23 07:40:41;;;;;;;8.00;4.60;;;;;;;24.43;48.87;100304.55;103758;279;39558;-74
2023/06/23 07:43:16;;;;;;;6.80;4.70;;;;;;;24.44;49.19;100314.61;103773;279;39934;-74
2023/06/23 07:45:50;;;;;;;5.20;4.50;;;;;;;24.45;49.14;100306.20;103727;279;38661;-74
2023/06/23 07:48:24;;;;;;;5.40;4.20;;;;;;;24.44;49.22;100310.11;103745;279;40342;-73
2023/06/23 07:50:59;;;;;;;8.60;4.60;;;;;;;24.42;49.30;100313.03;103663;279;174522;-74
2023/06/23 07:53:34;;;;;;;6.30;4.10;;;;;;;24.38;49.38;100306.30;103793;279;38521;-75
2023/06/23 07:56:12;;;;;;;5.80;4.80;;;;;;;24.37;49.59;100304.83;103803;279;38391;-73
2023/06/23 07:58:46;;;;;;;7.40;4.80;;;;;;;24.31;49.60;100302.70;103756;279;38408;-74
2023/06/23 08:01:21;;;;;;;7.10;5.10;;;;;;;24.28;50.04;100297.85;103778;279;39480;-75
2023/06/23 08:03:55;;;;;;;7.70;5.20;;;;;;;24.24;50.08;100292.09;103779;279;38732;-75
2023/06/23 08:06:29;;;;;;;8.70;5.30;;;;;;;24.17;50.28;100290.07;103745;279;39035;-73
2023/06/23 08:09:05;;;;;;;7.80;5.30;;;;;;;24.10;50.56;100283.97;103708;279;39965;-73
2023/06/23 08:11:39;;;;;;;9.40;5.60;;;;;;;24.04;50.85;100278.54;103743;279;38459;-73
2023/06/23 08:14:13;;;;;;;7.20;5.30;;;;;;;23.99;51.10;100276.92;103743;279;38843;-72
2023/06/23 08:16:48;;;;;;;6.80;5.50;;;;;;;23.92;51.44;100275.98;103688;279;38709;-74
2023/06/23 08:19:24;;;;;;;10.20;5.80;;;;;;;23.85;51.82;100276.48;103705;279;38271;-73
2023/06/23 08:21:59;;;;;;;6.70;5.30;;;;;;;23.77;52.34;100276.65;103752;279;38231;-74
2023/06/23 08:24:34;;;;;;;6.90;6.20;;;;;;;23.71;52.80;100272.10;103725;279;38434;-73
2023/06/23 08:27:09;;;;;;;8.40;6.60;;;;;;;23.63;53.41;100266.93;103733;279;39489;-74
2023/06/23 08:29:43;;;;;;;7.90;6.70;;;;;;;23.54;54.38;100259.96;103770;279;39473;-73
2023/06/23 08:32:18;;;;;;;7.20;6.50;;;;;;;23.44;55.33;100255.66;103827;279;39410;-75
2023/06/23 08:35:03;;;;;;;10.40;6.50;;;;;;;23.34;56.11;100246.31;103739;279;38295;-75
2023/06/23 08:37:43;;;;;;;11.70;7.30;;;;;;;23.23;57.37;100232.20;103807;279;39656;-74
2023/06/23 08:40:18;;;;;;;10.00;7.40;;;;;;;23.09;58.42;100214.85;103713;279;38624;-73
2023/06/23 08:42:53;;;;;;;10.40;7.70;;;;;;;22.96;59.61;100201.17;103704;279;39093;-74
2023/06/23 08:45:28;;;;;;;9.90;6.90;;;;;;;22.83;60.16;100181.80;103745;279;39376;-74
2023/06/23 08:48:02;;;;;;;11.60;7.80;;;;;;;22.75;61.11;100165.01;103781;279;38376;-74
2023/06/23 08:50:36;;;;;;;13.30;8.30;;;;;;;22.65;61.80;100137.77;103711;279;38967;-73
2023/06/23 08:53:10;;;;;;;9.40;8.10;;;;;;;22.54;62.80;100113.95;103731;279;39957;-73
2023/06/23 08:55:45;;;;;;;8.30;7.60;;;;;;;22.43;63.48;100100.48;103681;279;39290;-74
2023/06/23 08:58:22;;;;;;;9.90;8.40;;;;;;;22.34;63.81;100086.27;103722;279;38494;-73
2023/06/23 09:00:57;;;;;;;11.60;7.90;;;;;;;22.25;64.89;100061.34;103753;279;38442;-74
2023/06/23 09:03:31;;;;;;;10.70;8.00;;;;;;;22.14;65.58;100039.88;103743;279;39413;-73
2023/06/23 09:06:05;;;;;;;11.40;8.50;;;;;;;22.07;66.23;100049.80;103715;279;38244;-72
2023/06/23 09:08:39;;;;;;;12.60;9.30;;;;;;;22.01;67.02;100071.31;103714;279;38462;-72
2023/06/23 09:11:13;;;;;;;11.50;8.50;;;;;;;21.96;66.59;100090.08;103723;279;39002;-72
2023/06/23 09:13:48;;;;;;;12.20;7.70;;;;;;;21.95;67.60;100092.23;103758;279;38506;-74
2023/06/23 09:16:23;;;;;;;9.50;8.50;;;;;;;21.95;67.86;100078.73;103764;279;38696;-72
2023/06/23 09:18:56;;;;;;;9.90;8.80;;;;;;;21.95;68.28;100069.73;103743;279;39007;-72
2023/06/23 09:21:30;;;;;;;12.60;10.20;;;;;;;21.95;68.48;100085.86;103722;279;38333;-73
2023/06/23 09:24:07;;;;;;;11.00;9.50;;;;;;;21.92;68.86;100113.27;103745;279;38522;-73
2023/06/23 09:26:49;;;;;;;14.90;9.90;;;;;;;21.92;68.90;100127.90;103791;279;39458;-73
2023/06/23 09:29:26;;;;;;;14.40;9.00;;;;;;;21.95;69.60;100152.67;103775;279;39702;-73
2023/06/23 09:32:02;;;;;;;11.90;9.40;;;;;;;21.97;70.35;100175.02;103783;279;39801;-74
2023/06/23 09:34:38;;;;;;;11.60;9.20;;;;;;;21.99;71.26;100181.73;103721;279;38236;-72
2023/06/23 09:37:17;;;;;;;10.40;9.40;;;;;;;21.99;71.85;100195.95;103782;279;38702;-72
2023/06/23 09:39:49;;;;;;;;;;;;;;;21.99;72.19;100203.83;103771;279;38244;-72
2023/06/23 09:42:24;;;;;;;11.50;9.00;;;;;;;21.96;72.82;100215.28;103741;279;39387;-72
2023/06/23 09:44:59;;;;;;;11.30;9.10;;;;;;;21.97;73.21;100227.92;103056;279;893871;-72
2023/06/23 09:47:36;;;;;;;10.60;9.60;;;;;;;21.98;73.50;100223.10;103706;279;39383;-73
2023/06/23 09:50:16;;;;;;;13.20;10.00;;;;;;;21.96;73.46;100226.12;103739;279;38221;-74
2023/06/23 09:52:52;;;;;;;13.00;9.90;;;;;;;21.90;73.78;100234.59;103740;279;39674;-73
2023/06/23 09:55:27;;;;;;;10.40;9.50;;;;;;;21.88;74.41;100252.00;103688;279;38294;-72
2023/06/23 09:58:02;;;;;;;10.80;9.70;;;;;;;21.88;74.75;100267.23;103766;279;38486;-73
2023/06/23 10:00:36;;;;;;;11.50;9.70;;;;;;;21.92;75.05;100281.34;103727;279;39462;-73
2023/06/23 10:03:11;;;;;;;13.30;10.40;;;;;;;21.96;75.66;100287.75;103740;279;39029;-73
2023/06/23 10:05:47;;;;;;;13.00;9.80;;;;;;;21.96;75.68;100301.73;103731;279;40379;-75
2023/06/23 10:08:23;;;;;;;14.20;9.80;;;;;;;21.97;75.68;100311.44;103796;279;38375;-74
2023/06/23 10:10:56;;;;;;;13.20;10.50;;;;;;;21.98;75.96;100321.50;103783;279;38512;-74
2023/06/23 10:13:30;;;;;;;12.40;10.50;;;;;;;21.97;76.10;100334.04;103816;279;38307;-73
2023/06/23 10:16:05;;;;;;;13.50;11.00;;;;;;;21.97;76.22;100333.48;103800;279;39645;-74
2023/06/23 10:18:39;;;;;;;12.40;11.10;;;;;;;21.96;76.24;100343.83;103744;279;39616;-74
2023/06/23 10:21:13;;;;;;;12.00;10.20;;;;;;;21.93;76.55;100343.70;103740;279;38633;-75
2023/06/23 10:23:49;;;;;;;11.70;10.40;;;;;;;21.92;76.75;100342.77;103792;279;38241;-75
2023/06/23 10:26:23;;;;;;;12.20;10.90;;;;;;;21.94;77.15;100341.38;103802;279;38368;-75
2023/06/23 10:28:58;;;;;;;13.10;10.40;;;;;;;21.99;77.37;100342.86;103717;279;38759;-73
2023/06/23 10:31:32;;;;;;;12.10;10.70;;;;;;;22.04;77.96;100346.00;103648;279;174461;-74
2023/06/23 10:34:07;;;;;;;12.10;10.80;;;;;;;22.10;78.38;100344.55;103705;279;39562;-73
2023/06/23 10:36:43;;;;;;;13.20;10.90;;;;;;;22.21;78.69;100343.08;103746;279;38301;-75
2023/06/23 10:39:18;;;;;;;12.00;10.80;;;;;;;22.40;79.33;100342.00;103732;279;38359;-75
2023/06/23 10:41:52;;;;;;;14.90;13.40;;;;;;;22.60;80.01;100338.94;103749;279;38432;-75
2023/06/23 10:44:26;;;;;;;14.60;12.90;;;;;;;22.80;79.88;100331.50;103736;279;39949;-75
2023/06/23 10:47:00;;;;;;;13.20;11.80;;;;;;;22.98;79.83;100332.27;103792;279;38233;-74
2023/06/23 10:49:35;;;;;;;13.20;11.60;;;;;;;23.13;79.06;100333.67;103760;279;38617;-72
2023/06/23 10:52:09;;;;;;;11.80;10.70;;;;;;;23.27;78.15;100336.91;103777;279;38642;-75
2023/06/23 10:54:44;;;;;;;12.70;11.60;;;;;;;23.43;77.29;100334.52;103737;279;38290;-75
2023/06/23 10:57:18;;;;;;;13.40;12.00;;;;;;;23.58;76.43;100332.25;103744;279;39411;-74
2023/06/23 11:00:05;;;;;;;12.10;10.90;;;;;;;23.70;76.51;100333.31;103775;279;39451;-74
2023/06/23 11:02:56;;;;;;;13.00;11.50;;;;;;;23.78;75.83;100340.31;103621;279;174278;-76
2023/06/23 11:05:30;;;;;;;12.50;11.30;;;;;;;23.87;74.89;100338.95;103789;279;39628;-76
2023/06/23 11:08:09;;;;;;;13.30;11.90;;;;;;;23.89;73.80;100336.08;103734;279;38503;-74
2023/06/23 11:10:57;;;;;;;12.90;11.80;;;;;;;23.89;73.34;100329.66;103741;279;38960;-74
2023/06/23 11:13:43;;;;;;;12.60;11.50;;;;;;;23.89;72.65;100326.61;103785;279;38661;-76
2023/06/23 11:16:18;;;;;;;12.20;11.10;;;;;;;23.97;72.56;100326.62;103810;279;38246;-75
2023/06/23 11:18:54;;;;;;;12.60;11.40;;;;;;;24.03;71.89;100322.35;103746;279;38577;-74
2023/06/23 11:21:35;;;;;;;11.80;10.70;;;;;;;24.12;72.14;100320.69;103801;279;38344;-74
2023/06/23 11:24:19;;;;;;;11.80;10.70;;;;;;;24.24;71.87;100324.38;103772;278;38782;-74
2023/06/23 11:27:03;;;;;;;12.60;11.40;;;;;;;24.34;70.79;100321.65;103765;279;39076;-75
2023/06/23 11:29:38;;;;;;;13.50;12.20;;;;;;;24.45;69.99;100321.80;103747;279;39421;-76
2023/06/23 11:32:20;;;;;;;12.50;11.40;;;;;;;24.66;69.79;100324.41;103735;279;38724;-79
2023/06/23 11:34:57;;;;;;;11.50;10.40;;;;;;;24.93;69.81;100316.38;103748;279;38920;-77
2023/06/23 11:37:37;;;;;;;11.20;10.10;;;;;;;25.23;68.92;100323.11;103724;279;39660;-77
2023/06/23 11:40:16;;;;;;;11.30;10.30;;;;;;;25.53;68.63;100314.35;103781;279;39469;-77
2023/06/23 11:42:52;;;;;;;12.30;10.20;;;;;;;25.85;66.56;100313.79;103878;279;38345;-80
2023/06/23 11:45:28;;;;;;;10.30;9.40;;;;;;;26.09;64.80;100321.14;103674;279;38713;-79
2023/06/23 11:48:02;;;;;;;9.90;9.00;;;;;;;26.26;63.94;100326.14;103954;279;38992;-79
2023/06/23 11:50:37;;;;;;;10.70;9.80;;;;;;;26.47;62.88;100328.20;103885;279;38702;-79
2023/06/23 11:53:16;;;;;;;9.20;8.20;;;;;;;26.58;62.01;100326.48;103995;279;38454;-80
2023/06/23 11:55:51;;;;;;;9.50;8.60;;;;;;;26.71;61.26;100321.34;104291;279;38469;-78
2023/06/23 11:58:25;;;;;;;9.90;9.00;;;;;;;26.81;60.00;100319.08;103775;279;38451;-77
2023/06/23 12:01:01;;;;;;;10.10;9.10;;;;;;;26.77;58.14;100322.89;103794;279;39868;-78